createdAt,value
2022-12-27T00:01:35.186Z,12.43
2022-12-27T00:04:07.286Z,11.30
2022-12-27T00:06:38.533Z,11.93
2022-12-27T00:09:09.456Z,11.52
2022-12-27T00:11:40.921Z,12.45
2022-12-27T00:14:13.113Z,13.57
2022-12-27T00:16:43.888Z,13.23
2022-12-27T00:19:14.664Z,13.75
2022-12-27T00:21:45.580Z,13.27
2022-12-27T00:24:16.296Z,12.77
2022-12-27T00:26:49.764Z,12.13
2022-12-27T00:29:20.212Z,13.55
2022-12-27T00:31:51.308Z,12.75
2022-12-27T00:34:25.031Z,11.43
2022-12-27T00:36:55.615Z,12.57
2022-12-27T00:39:26.666Z,13.52
2022-12-27T00:41:57.282Z,13.73
2022-12-27T00:44:28.250Z,11.73
2022-12-27T00:46:58.801Z,11.52
2022-12-27T00:49:29.346Z,12.45
2022-12-27T00:52:00.671Z,12.38
2022-12-27T00:54:33.992Z,10.80
2022-12-27T00:57:05.433Z,9.73
2022-12-27T00:59:38.357Z,9.73
2022-12-27T01:02:09.169Z,8.77
2022-12-27T01:04:39.660Z,9.75
2022-12-27T01:07:10.601Z,11.00
2022-12-27T01:09:41.216Z,11.50
2022-12-27T01:12:12.596Z,13.63
2022-12-27T01:14:46.796Z,13.57
2022-12-27T01:17:17.817Z,13.32
2022-12-27T01:19:48.327Z,13.63
2022-12-27T01:22:19.555Z,13.38
2022-12-27T01:24:53.010Z,13.93
2022-12-27T01:27:23.729Z,14.48
2022-12-27T01:29:57.561Z,14.68
2022-12-27T01:32:32.229Z,17.45
2022-12-27T01:35:03.766Z,16.80
2022-12-27T01:37:34.702Z,16.55
2022-12-27T01:40:05.486Z,16.70
2022-12-27T01:42:54.261Z,17.25
2022-12-27T01:45:28.873Z,17.80
2022-12-27T01:48:23.859Z,17.30
2022-12-27T01:50:58.560Z,18.55
2022-12-27T01:53:32.872Z,18.85
2022-12-27T01:56:09.824Z,17.98
2022-12-27T01:58:52.226Z,18.10
2022-12-27T02:01:25.183Z,18.90
2022-12-27T02:04:00.159Z,18.92
2022-12-27T02:06:31.835Z,20.48
2022-12-27T02:09:18.392Z,21.63
2022-12-27T02:11:52.409Z,21.20
2022-12-27T02:14:27.684Z,19.85
2022-12-27T02:17:03.070Z,18.65
2022-12-27T02:19:51.959Z,18.88
2022-12-27T02:23:13.495Z,15.75
2022-12-27T02:26:13.189Z,15.02
2022-12-27T02:29:07.017Z,14.45
2022-12-27T02:32:01.357Z,12.70
2022-12-27T02:34:45.897Z,12.13
2022-12-27T02:37:16.252Z,12.52
2022-12-27T02:39:48.933Z,14.30
2022-12-27T02:42:38.780Z,12.63
2022-12-27T02:45:37.345Z,12.13
2022-12-27T02:48:30.639Z,11.82
2022-12-27T02:51:36.513Z,13.55
2022-12-27T02:54:47.035Z,11.85
2022-12-27T02:57:45.044Z,11.15
2022-12-27T03:00:38.745Z,11.80
2022-12-27T03:03:42.612Z,11.98
2022-12-27T03:06:51.972Z,12.57
2022-12-27T03:10:02.501Z,11.80
2022-12-27T03:12:59.605Z,11.20
2022-12-27T03:16:00.455Z,10.77
2022-12-27T03:18:43.744Z,10.05
2022-12-27T03:21:44.264Z,11.05
2022-12-27T03:24:38.085Z,10.02
2022-12-27T03:27:29.436Z,10.18
2022-12-27T03:30:19.856Z,8.88
2022-12-27T03:33:23.955Z,9.30
2022-12-27T03:36:33.523Z,9.27
2022-12-27T03:39:28.918Z,8.00
2022-12-27T03:42:38.641Z,9.02
2022-12-27T03:45:10.526Z,8.90
2022-12-27T03:48:00.607Z,14.45
2022-12-27T03:50:38.111Z,10.57
2022-12-27T03:53:15.690Z,9.07
2022-12-27T03:55:46.152Z,11.15
2022-12-27T03:58:17.071Z,10.27
2022-12-27T04:00:48.311Z,10.30
2022-12-27T04:03:19.054Z,9.07
2022-12-27T04:05:52.998Z,9.73
2022-12-27T04:08:41.385Z,8.90
2022-12-27T04:11:30.902Z,8.20
2022-12-27T04:14:19.329Z,10.20
2022-12-27T04:17:08.272Z,8.93
2022-12-27T04:19:57.008Z,9.25
2022-12-27T04:22:46.394Z,7.15
2022-12-27T04:25:36.302Z,6.50
2022-12-27T04:28:24.800Z,5.97
2022-12-27T04:31:13.237Z,5.97
2022-12-27T04:34:02.414Z,4.70
2022-12-27T04:36:32.782Z,5.40
2022-12-27T04:39:03.319Z,6.03
2022-12-27T04:41:52.757Z,5.13
2022-12-27T04:44:41.527Z,6.30
2022-12-27T04:47:35.714Z,8.77
2022-12-27T04:50:54.606Z,6.20
2022-12-27T04:53:43.735Z,7.95
2022-12-27T04:56:14.133Z,9.02
2022-12-27T04:59:04.256Z,5.88
2022-12-27T05:01:52.916Z,5.10
2022-12-27T05:04:23.608Z,4.85
2022-12-27T05:06:54.806Z,5.38
2022-12-27T05:09:43.688Z,4.78
2022-12-27T05:12:32.639Z,3.17
2022-12-27T05:15:06.055Z,2.40
2022-12-27T05:17:37.135Z,2.00
2022-12-27T05:20:12.028Z,2.60
2022-12-27T05:23:00.621Z,4.93
2022-12-27T05:25:40.250Z,3.05
2022-12-27T05:28:12.309Z,3.15
2022-12-27T05:30:45.377Z,3.40
2022-12-27T05:33:17.051Z,3.08
2022-12-27T05:35:59.803Z,3.45
2022-12-27T05:38:30.490Z,3.80
2022-12-27T05:41:04.244Z,5.07
2022-12-27T05:43:35.675Z,4.85
2022-12-27T05:46:16.124Z,4.75
2022-12-27T05:48:47.053Z,4.60
2022-12-27T05:51:19.977Z,3.75
2022-12-27T05:53:51.343Z,3.22
2022-12-27T05:56:23.017Z,3.63
2022-12-27T05:58:56.802Z,2.40
2022-12-27T06:01:27.513Z,2.90
2022-12-27T06:03:58.322Z,2.25
2022-12-27T06:06:31.209Z,2.83
2022-12-27T06:09:07.725Z,3.03
2022-12-27T06:11:39.463Z,2.25
2022-12-27T06:14:10.133Z,2.63
2022-12-27T06:16:44.216Z,2.70
2022-12-27T06:19:14.616Z,2.40
2022-12-27T06:21:45.419Z,3.00
2022-12-27T06:24:16.901Z,2.38
2022-12-27T06:26:47.625Z,2.70
2022-12-27T06:29:18.388Z,2.92
2022-12-27T06:31:49.128Z,2.78
2022-12-27T06:34:19.924Z,2.50
2022-12-27T06:36:52.234Z,3.03
2022-12-27T06:39:22.882Z,2.58
2022-12-27T06:41:56.268Z,2.95
2022-12-27T06:44:28.131Z,2.70
2022-12-27T06:47:00.112Z,3.20
2022-12-27T06:49:33.089Z,3.33
2022-12-27T06:52:03.963Z,3.80
2022-12-27T06:54:34.604Z,4.43
2022-12-27T06:57:05.337Z,4.68
2022-12-27T06:59:36.251Z,5.00
2022-12-27T07:02:07.108Z,3.75
2022-12-27T07:04:39.165Z,4.70
2022-12-27T07:07:15.436Z,4.00
2022-12-27T07:09:49.169Z,3.65
2022-12-27T07:12:21.210Z,3.67
2022-12-27T07:14:52.384Z,3.53
2022-12-27T07:17:32.580Z,3.45
2022-12-27T07:20:06.262Z,3.22
2022-12-27T07:22:36.912Z,3.50
2022-12-27T07:25:08.684Z,3.42
2022-12-27T07:27:39.433Z,3.67
2022-12-27T07:30:10.755Z,3.22
2022-12-27T07:32:41.642Z,3.28
2022-12-27T07:35:12.498Z,3.45
2022-12-27T07:37:43.598Z,2.65
2022-12-27T07:40:17.314Z,2.50
2022-12-27T07:42:49.294Z,2.53
2022-12-27T07:45:21.579Z,2.78
2022-12-27T07:47:51.859Z,3.42
2022-12-27T07:50:22.665Z,3.83
2022-12-27T07:52:53.429Z,2.70
2022-12-27T07:55:24.467Z,3.65
2022-12-27T07:57:55.735Z,4.13
2022-12-27T08:00:26.562Z,3.40
2022-12-27T08:02:57.314Z,3.45
2022-12-27T08:05:31.212Z,3.03
2022-12-27T08:08:03.490Z,3.30
2022-12-27T08:10:35.076Z,3.50
2022-12-27T08:13:05.715Z,3.25
2022-12-27T08:15:37.231Z,3.05
2022-12-27T08:18:08.301Z,3.17
2022-12-27T08:20:39.161Z,3.13
2022-12-27T08:23:09.875Z,2.72
2022-12-27T08:25:46.743Z,3.00
2022-12-27T08:28:38.947Z,4.43
2022-12-27T08:31:17.953Z,5.03
2022-12-27T08:33:51.238Z,4.82
2022-12-27T08:39:17.781Z,4.00
2022-12-27T08:41:49.095Z,4.43
2022-12-27T08:44:20.166Z,4.70
2022-12-27T08:46:56.398Z,4.85
2022-12-27T08:49:27.134Z,4.50
2022-12-27T08:51:57.644Z,4.30
2022-12-27T08:54:29.124Z,3.88
2022-12-27T08:56:59.949Z,3.90
2022-12-27T08:59:30.324Z,4.35
2022-12-27T09:02:01.605Z,4.13
2022-12-27T09:04:32.265Z,4.65
2022-12-27T09:07:06.020Z,4.80
2022-12-27T09:09:36.653Z,5.47
2022-12-27T09:12:09.234Z,5.35
2022-12-27T09:14:39.820Z,5.25
2022-12-27T09:17:10.404Z,5.13
2022-12-27T09:19:41.583Z,5.22
2022-12-27T09:22:11.896Z,6.90
2022-12-27T09:24:45.085Z,6.85
2022-12-27T09:27:15.819Z,6.95
2022-12-27T09:29:49.550Z,6.78
2022-12-27T09:32:20.130Z,6.90
2022-12-27T09:34:50.524Z,6.95
2022-12-27T09:37:21.106Z,6.63
2022-12-27T09:39:52.436Z,8.10
2022-12-27T09:42:48.514Z,8.48
2022-12-27T09:45:46.810Z,8.40
2022-12-27T09:48:21.539Z,11.55
2022-12-27T09:50:57.271Z,9.35
2022-12-27T09:53:45.543Z,10.73
2022-12-27T09:56:24.402Z,12.43
2022-12-27T09:58:59.807Z,12.15
2022-12-27T10:01:36.322Z,12.30
2022-12-27T10:04:18.306Z,11.55
2022-12-27T10:06:51.897Z,10.52
2022-12-27T10:09:32.837Z,9.98
2022-12-27T10:12:31.792Z,10.85
2022-12-27T10:15:09.666Z,10.00
2022-12-27T10:17:52.700Z,9.95
2022-12-27T10:20:28.474Z,11.75
2022-12-27T10:23:06.212Z,10.68
2022-12-27T10:25:37.331Z,11.40
2022-12-27T10:28:19.615Z,11.65
2022-12-27T10:30:50.367Z,12.30
2022-12-27T10:33:31.832Z,10.95
2022-12-27T10:36:10.222Z,9.75
2022-12-27T10:38:41.100Z,13.18
2022-12-27T10:41:41.621Z,12.32
2022-12-27T10:44:16.699Z,11.50
2022-12-27T10:46:52.936Z,14.13
2022-12-27T10:49:29.875Z,13.25
2022-12-27T10:52:19.211Z,13.02
2022-12-27T10:54:57.752Z,12.15
2022-12-27T10:57:30.738Z,13.38
2022-12-27T11:00:18.472Z,13.38
2022-12-27T11:02:54.411Z,13.23
2022-12-27T11:05:26.466Z,12.88
2022-12-27T11:07:57.085Z,13.15
2022-12-27T11:10:34.828Z,16.77
2022-12-27T11:13:07.677Z,14.23
2022-12-27T11:15:42.707Z,12.30
2022-12-27T11:18:19.204Z,13.30
2022-12-27T11:20:55.905Z,12.10
2022-12-27T11:23:31.331Z,10.07
2022-12-27T11:26:06.964Z,10.57
2022-12-27T11:28:40.691Z,10.88
2022-12-27T11:31:19.659Z,12.18
2022-12-27T11:33:53.283Z,13.70
2022-12-27T11:36:44.744Z,13.73
2022-12-27T11:39:54.073Z,11.85
2022-12-27T11:42:41.653Z,9.02
2022-12-27T11:45:21.113Z,11.30
2022-12-27T11:48:02.473Z,10.85
2022-12-27T11:51:13.146Z,11.25
2022-12-27T11:54:02.571Z,13.13
2022-12-27T11:56:44.842Z,16.88
2022-12-27T11:59:26.400Z,12.43
2022-12-27T12:02:17.585Z,17.55
2022-12-27T12:05:23.322Z,13.95
2022-12-27T12:08:15.972Z,12.68
2022-12-27T12:11:06.145Z,11.38
2022-12-27T12:14:00.294Z,10.15
2022-12-27T12:16:55.290Z,10.00
2022-12-27T12:19:43.139Z,10.52
2022-12-27T12:22:44.744Z,11.10
2022-12-27T12:25:44.077Z,12.30
2022-12-27T12:28:57.671Z,14.50
2022-12-27T12:31:47.688Z,12.30
2022-12-27T12:34:27.228Z,9.15
2022-12-27T12:37:23.903Z,9.10
2022-12-27T12:40:24.186Z,7.97
2022-12-27T12:43:18.905Z,8.10
2022-12-27T12:46:12.454Z,8.55
2022-12-27T12:49:15.478Z,7.70
2022-12-27T12:52:03.279Z,9.30
2022-12-27T12:55:18.285Z,9.35
2022-12-27T12:57:57.254Z,7.88
2022-12-27T13:00:50.989Z,10.68
2022-12-27T13:03:47.299Z,9.60
2022-12-27T13:06:55.354Z,8.85
2022-12-27T13:10:12.775Z,18.70
2022-12-27T13:13:04.916Z,10.13
2022-12-27T13:15:56.166Z,8.80
2022-12-27T13:18:59.151Z,8.23
2022-12-27T13:22:00.549Z,9.38
2022-12-27T13:25:12.489Z,10.30
2022-12-27T13:28:04.351Z,9.40
2022-12-27T13:30:58.404Z,9.00
2022-12-27T13:33:41.292Z,9.27
2022-12-27T13:36:31.749Z,8.77
2022-12-27T13:39:17.819Z,8.57
2022-12-27T13:42:18.959Z,9.00
2022-12-27T13:45:20.542Z,8.98
2022-12-27T13:48:00.066Z,9.07
2022-12-27T13:50:53.047Z,13.60
2022-12-27T13:53:51.314Z,13.57
2022-12-27T13:56:57.224Z,10.13
2022-12-27T13:59:54.698Z,10.02
2022-12-27T14:02:34.436Z,10.05
2022-12-27T14:05:23.027Z,9.63
2022-12-27T14:08:05.319Z,9.18
2022-12-27T14:10:39.395Z,9.20
2022-12-27T14:13:12.410Z,8.82
2022-12-27T14:16:06.418Z,8.52
2022-12-27T14:18:46.793Z,8.48
2022-12-27T14:21:49.170Z,7.65
2022-12-27T14:24:23.076Z,7.05
2022-12-27T14:27:15.120Z,7.75
2022-12-27T14:30:13.283Z,8.55
2022-12-27T14:33:19.787Z,7.32
2022-12-27T14:36:05.402Z,7.47
2022-12-27T14:39:00.390Z,7.00
2022-12-27T14:41:55.556Z,8.13
2022-12-27T14:44:30.955Z,8.88
2022-12-27T14:47:01.755Z,9.70
2022-12-27T14:49:35.653Z,8.75
2022-12-27T14:52:45.683Z,9.07
2022-12-27T14:55:46.021Z,10.20
2022-12-27T14:58:34.563Z,9.63
2022-12-27T15:01:30.920Z,9.77
2022-12-27T15:04:45.295Z,9.93
2022-12-27T15:07:18.328Z,10.73
2022-12-27T15:09:54.494Z,9.98
2022-12-27T15:12:39.900Z,10.82
2022-12-27T15:15:14.728Z,13.55
2022-12-27T15:17:59.899Z,9.43
2022-12-27T15:20:35.616Z,7.95
2022-12-27T15:23:27.056Z,7.30
2022-12-27T15:26:09.137Z,7.05
2022-12-27T15:29:12.325Z,7.25
2022-12-27T15:31:49.480Z,7.78
2022-12-27T15:34:39.884Z,7.82
2022-12-27T15:37:49.729Z,7.00
2022-12-27T15:40:40.388Z,6.20
2022-12-27T15:43:43.533Z,5.22
2022-12-27T15:46:36.073Z,5.43
2022-12-27T15:49:31.482Z,4.95
2022-12-27T15:52:25.289Z,5.20
2022-12-27T15:55:02.587Z,4.53
2022-12-27T15:58:06.753Z,4.88
2022-12-27T16:00:37.448Z,5.63
2022-12-27T16:03:36.548Z,5.47
2022-12-27T16:06:10.754Z,5.25
2022-12-27T16:08:44.182Z,5.65
2022-12-27T16:11:15.046Z,5.97
2022-12-27T16:13:50.462Z,6.20
2022-12-27T16:16:33.208Z,6.18
2022-12-27T16:19:26.396Z,6.03
2022-12-27T16:21:58.435Z,6.38
2022-12-27T16:24:30.178Z,6.22
2022-12-27T16:27:05.707Z,6.10
2022-12-27T16:29:38.482Z,5.85
2022-12-27T16:32:36.016Z,6.03
2022-12-27T16:35:17.431Z,5.90
2022-12-27T16:37:54.622Z,5.05
2022-12-27T16:40:40.993Z,4.20
2022-12-27T16:43:11.461Z,4.32
2022-12-27T16:45:51.013Z,3.50
2022-12-27T16:48:55.104Z,3.13
2022-12-27T16:52:04.739Z,3.55
2022-12-27T16:54:46.638Z,3.45
2022-12-27T16:57:27.664Z,2.85
2022-12-27T17:00:23.647Z,2.80
2022-12-27T17:02:54.104Z,2.95
2022-12-27T17:05:27.993Z,6.60
2022-12-27T17:07:58.224Z,4.85
2022-12-27T17:10:43.909Z,3.60
2022-12-27T17:13:41.101Z,3.67
2022-12-27T17:16:21.037Z,4.90
2022-12-27T17:18:55.056Z,3.85
2022-12-27T17:21:30.618Z,4.45
2022-12-27T17:24:18.592Z,4.50
2022-12-27T17:27:12.800Z,3.45
2022-12-27T17:30:13.045Z,3.53
2022-12-27T17:33:17.881Z,3.72
2022-12-27T17:36:02.779Z,3.45
2022-12-27T17:38:45.776Z,3.65
2022-12-27T17:41:53.023Z,3.30
2022-12-27T17:44:46.174Z,4.30
2022-12-27T17:47:41.811Z,3.95
2022-12-27T17:50:24.849Z,4.03
2022-12-27T17:53:29.727Z,3.80
2022-12-27T17:56:39.740Z,3.30
2022-12-27T17:59:14.572Z,3.28
2022-12-27T18:01:50.376Z,3.50
2022-12-27T18:04:30.708Z,3.17
2022-12-27T18:07:07.921Z,3.40
2022-12-27T18:09:54.585Z,3.40
2022-12-27T18:12:32.083Z,3.50
2022-12-27T18:15:13.537Z,3.20
2022-12-27T18:17:47.752Z,3.35
2022-12-27T18:20:27.416Z,2.97
2022-12-27T18:23:04.299Z,3.58
2022-12-27T18:25:41.387Z,3.40
2022-12-27T18:28:32.255Z,3.30
2022-12-27T18:31:16.607Z,3.50
2022-12-27T18:33:51.038Z,3.35
2022-12-27T18:36:31.868Z,3.78
2022-12-27T18:39:09.382Z,4.03
2022-12-27T18:41:49.333Z,3.75
2022-12-27T18:44:27.748Z,3.85
2022-12-27T18:47:01.378Z,3.65
2022-12-27T18:49:38.535Z,3.90
2022-12-27T18:52:15.857Z,4.20
2022-12-27T18:54:46.427Z,3.70
2022-12-27T18:57:38.467Z,4.22
2022-12-27T19:00:23.157Z,4.20
2022-12-27T19:02:56.033Z,4.25
2022-12-27T19:05:28.874Z,4.70
2022-12-27T19:08:12.683Z,4.57
2022-12-27T19:10:50.905Z,4.53
2022-12-27T19:13:26.972Z,4.47
2022-12-27T19:15:58.847Z,4.68
2022-12-27T19:18:32.482Z,4.13
2022-12-27T19:21:05.596Z,4.43
2022-12-27T19:23:36.080Z,5.00
2022-12-27T19:26:06.398Z,3.97
2022-12-27T19:28:37.585Z,3.88
2022-12-27T19:31:22.601Z,4.00
2022-12-27T19:33:56.112Z,4.65
2022-12-27T19:36:46.186Z,4.72
2022-12-27T19:39:29.039Z,4.18
2022-12-27T19:42:01.363Z,4.32
2022-12-27T19:44:33.340Z,3.80
2022-12-27T19:47:03.792Z,3.75
2022-12-27T19:49:43.034Z,4.20
2022-12-27T19:52:21.491Z,3.55
2022-12-27T19:55:03.259Z,4.07
2022-12-27T19:57:33.661Z,3.55
2022-12-27T20:00:12.322Z,3.42
2022-12-27T20:02:43.105Z,3.35
2022-12-27T20:05:14.609Z,3.45
2022-12-27T20:07:44.818Z,3.30
2022-12-27T20:10:18.507Z,3.20
2022-12-27T20:12:48.915Z,3.33
2022-12-27T20:15:22.031Z,3.38
2022-12-27T20:17:53.094Z,3.40
2022-12-27T20:20:23.625Z,3.15
2022-12-27T20:22:54.268Z,3.28
2022-12-27T20:25:28.590Z,4.07
2022-12-27T20:27:58.890Z,3.85
2022-12-27T20:30:31.466Z,4.68
2022-12-27T20:33:03.658Z,5.30
2022-12-27T20:35:35.262Z,5.28
2022-12-27T20:38:06.380Z,5.35
2022-12-27T20:40:37.226Z,5.50
2022-12-27T20:43:08.223Z,6.63
2022-12-27T20:45:39.059Z,8.13
2022-12-27T20:48:10.267Z,8.30
2022-12-27T20:50:42.333Z,10.02
2022-12-27T20:53:12.972Z,8.70
2022-12-27T20:55:48.048Z,8.65
2022-12-27T20:58:19.038Z,8.50
2022-12-27T21:00:49.724Z,8.10
2022-12-27T21:03:20.904Z,8.07
2022-12-27T21:05:51.391Z,6.63
2022-12-27T21:08:21.649Z,7.65
2022-12-27T21:10:51.960Z,6.95
2022-12-27T21:13:22.400Z,6.63
2022-12-27T21:15:58.415Z,6.50
2022-12-27T21:18:33.234Z,6.30
2022-12-27T21:21:11.028Z,6.00
2022-12-27T21:23:41.860Z,5.85
2022-12-27T21:26:15.361Z,5.50
2022-12-27T21:28:46.279Z,6.00
2022-12-27T21:31:18.144Z,5.53
2022-12-27T21:33:48.913Z,5.75
2022-12-27T21:36:22.559Z,5.85
2022-12-27T21:38:53.180Z,5.32
2022-12-27T21:41:32.295Z,5.65
2022-12-27T21:44:03.128Z,5.32
2022-12-27T21:46:35.875Z,5.68
2022-12-27T21:49:08.789Z,6.47
2022-12-27T21:51:40.386Z,5.88
2022-12-27T21:54:17.187Z,6.60
2022-12-27T21:56:47.762Z,5.90
2022-12-27T21:59:18.270Z,6.45
2022-12-27T22:01:50.224Z,6.57
2022-12-27T22:04:25.456Z,6.75
2022-12-27T22:06:57.154Z,7.20
2022-12-27T22:09:27.751Z,7.38
2022-12-27T22:11:58.238Z,7.65
2022-12-27T22:14:36.594Z,10.02
2022-12-27T22:17:07.609Z,8.65
2022-12-27T22:19:37.893Z,8.82
2022-12-27T22:22:09.752Z,7.65
2022-12-27T22:24:40.082Z,7.40
2022-12-27T22:27:10.391Z,7.93
2022-12-27T22:29:42.204Z,7.50
2022-12-27T22:32:13.289Z,7.53
2022-12-27T22:34:43.572Z,8.65
2022-12-27T22:37:13.932Z,17.35
2022-12-27T22:39:44.759Z,18.75
2022-12-27T22:42:15.344Z,14.13
2022-12-27T22:44:45.839Z,13.43
2022-12-27T22:47:27.633Z,14.10
2022-12-27T22:50:10.281Z,16.00
2022-12-27T22:52:40.907Z,18.13
2022-12-27T22:55:11.863Z,18.08
2022-12-27T22:57:42.849Z,20.35
2022-12-27T23:00:15.645Z,23.45
2022-12-27T23:02:46.086Z,23.15
2022-12-27T23:05:16.779Z,20.83
2022-12-27T23:08:05.859Z,21.75
2022-12-27T23:10:37.483Z,19.10
2022-12-27T23:13:16.821Z,18.88
2022-12-27T23:15:47.549Z,18.30
2022-12-27T23:18:20.600Z,20.33
2022-12-27T23:21:21.332Z,18.33
2022-12-27T23:23:43.924Z,17.45
2022-12-27T23:26:17.986Z,16.48
2022-12-27T23:28:49.304Z,17.40
2022-12-27T23:31:24.093Z,15.60
2022-12-27T23:33:55.367Z,13.95
2022-12-27T23:36:26.161Z,13.40
2022-12-27T23:39:00.324Z,12.77
2022-12-27T23:41:31.619Z,14.77
2022-12-27T23:44:02.460Z,13.55
2022-12-27T23:46:35.017Z,14.07
2022-12-27T23:49:06.129Z,14.23
2022-12-27T23:51:36.515Z,16.58
2022-12-27T23:54:09.961Z,15.73
2022-12-27T23:56:40.508Z,15.55
2022-12-27T23:59:21.364Z,16.38
